Time;durP1;ratioP1;P1;durP2;ratioP2;P2;SDS_P1;SDS_P2;PMS_P1;PMS_P2;Temp;Humidity;BMP_temperature;BMP_pressure;BME280_temperature;BME280_humidity;BME280_pressure;Samples;Min_cycle;Max_cycle;Signal;HPM_P1;HPM_P2
2023/06/04 00:01:58;;;;;;;9.10;3.42;;;;;;;-140.66;100.00;55571.53;5102613;28;20031;-76
2023/06/04 00:04:44;;;;;;;13.93;4.00;;;;;;;-140.66;100.00;55571.53;5116867;28;20031;-76
2023/06/04 00:07:30;;;;;;;10.45;3.72;;;;;;;-140.66;100.00;55571.53;5117039;28;20023;-75
2023/06/04 00:10:16;;;;;;;7.05;3.47;;;;;;;-140.66;100.00;55571.53;5101570;28;20118;-75
2023/06/04 00:13:02;;;;;;;10.27;3.38;;;;;;;-140.66;100.00;55571.53;5115692;28;20036;-76
2023/06/04 00:15:47;;;;;;;9.27;3.10;;;;;;;-140.66;100.00;55571.53;5116219;28;20036;-77
2023/06/04 00:18:33;;;;;;;7.03;3.47;;;;;;;-140.66;100.00;55571.53;5116405;28;20024;-76
2023/06/04 00:21:19;;;;;;;6.85;3.22;;;;;;;-140.66;100.00;55571.53;5116784;28;20035;-76
2023/06/04 00:24:05;;;;;;;13.10;3.78;;;;;;;-140.66;100.00;55571.53;5116015;28;20175;-76
2023/06/04 00:26:51;;;;;;;8.85;2.55;;;;;;;-140.66;100.00;55571.53;5101469;28;20015;-77
2023/06/04 00:29:37;;;;;;;13.43;3.80;;;;;;;-140.66;100.00;55571.53;5101182;28;20027;-77
2023/06/04 00:32:23;;;;;;;8.90;3.45;;;;;;;-140.66;100.00;55571.53;5100976;28;20376;-77
2023/06/04 00:35:09;;;;;;;14.20;3.78;;;;;;;-140.66;100.00;55571.53;5115801;28;20089;-75
2023/06/04 00:37:55;;;;;;;15.52;4.13;;;;;;;-140.66;100.00;55571.53;5116532;28;20097;-77
2023/06/04 00:40:41;;;;;;;11.35;3.83;;;;;;;-140.66;100.00;55571.53;5101453;28;20041;-77
2023/06/04 00:43:27;;;;;;;9.88;3.60;;;;;;;-140.66;100.00;55571.53;5116206;28;20035;-76
2023/06/04 00:46:17;;;;;;;11.15;3.33;;;;;;;-140.66;100.00;55571.53;5116753;28;20019;-77
2023/06/04 00:49:05;;;;;;;10.00;3.10;;;;;;;-140.66;100.00;55571.53;5097609;28;20038;-77
2023/06/04 00:51:52;;;;;;;13.27;4.05;;;;;;;-140.66;100.00;55571.53;5116180;28;20023;-77
2023/06/04 00:54:37;;;;;;;14.80;4.70;;;;;;;-140.66;100.00;55571.53;5101128;28;20046;-77
2023/06/04 00:57:23;;;;;;;14.85;4.07;;;;;;;-140.66;100.00;55571.53;5100078;28;20464;-77
2023/06/04 01:00:10;;;;;;;11.80;3.80;;;;;;;-140.66;100.00;55571.53;5115197;28;20024;-76
2023/06/04 01:02:58;;;;;;;10.90;3.92;;;;;;;-140.66;100.00;55571.53;5115524;28;20027;-77
2023/06/04 01:05:55;;;;;;;8.52;3.33;;;;;;;-140.66;100.00;55571.53;5100335;28;20019;-77
2023/06/04 01:08:43;;;;;;;14.45;3.47;;;;;;;-140.66;100.00;55571.53;5100415;28;20031;-77
2023/06/04 01:11:37;;;;;;;9.65;3.05;;;;;;;-140.66;100.00;55571.53;5100253;28;20047;-75
2023/06/04 01:14:25;;;;;;;12.85;3.10;;;;;;;-140.66;100.00;55571.53;5099734;28;20027;-76
2023/06/04 01:17:41;;;;;;;7.55;3.25;;;;;;;-140.66;100.00;55571.53;5099512;28;20126;-76
2023/06/04 01:20:39;;;;;;;8.23;2.97;;;;;;;-140.66;100.00;55571.53;5099835;28;20031;-77
2023/06/04 01:23:38;;;;;;;8.02;2.65;;;;;;;-140.66;100.00;55571.53;5100488;28;20387;-77
2023/06/04 01:26:29;;;;;;;6.13;2.63;;;;;;;-140.66;100.00;55571.53;5118124;28;20031;-77
2023/06/04 01:29:15;;;;;;;8.05;3.10;;;;;;;-140.66;100.00;55571.53;5115708;28;20023;-77
2023/06/04 01:32:01;;;;;;;11.48;3.55;;;;;;;-140.66;100.00;55571.53;5128985;28;20101;-76
2023/06/04 01:34:47;;;;;;;7.90;3.20;;;;;;;-140.66;100.00;55571.53;5127518;28;20035;-77
2023/06/04 01:37:32;;;;;;;11.27;3.13;;;;;;;-140.66;100.00;55571.53;5122926;28;20371;-78
2023/06/04 01:40:18;;;;;;;9.32;3.40;;;;;;;-140.66;100.00;55571.53;5118411;28;20063;-77
2023/06/04 01:43:04;;;;;;;10.60;3.40;;;;;;;-140.66;100.00;55571.53;5100336;28;20122;-77
2023/06/04 01:45:50;;;;;;;9.50;3.42;;;;;;;-140.66;100.00;55571.53;5114553;28;20024;-77
2023/06/04 01:48:36;;;;;;;11.27;4.10;;;;;;;-140.66;100.00;55571.53;5099618;28;20375;-77
2023/06/04 01:51:22;;;;;;;8.15;3.40;;;;;;;-140.66;100.00;55571.53;5100189;28;20038;-76
2023/06/04 01:54:08;;;;;;;10.55;3.20;;;;;;;-140.66;100.00;55571.53;5100683;28;20106;-77
2023/06/04 01:56:53;;;;;;;8.88;2.63;;;;;;;-140.66;100.00;55571.53;5115239;28;20035;-77
2023/06/04 01:59:41;;;;;;;10.02;3.60;;;;;;;-140.66;100.00;55571.53;5114333;28;20027;-78
2023/06/04 02:02:26;;;;;;;11.18;3.58;;;;;;;-140.66;100.00;55571.53;5114206;28;20040;-76
2023/06/04 02:05:12;;;;;;;10.57;3.30;;;;;;;-140.66;100.00;55571.53;5114122;28;20030;-76
2023/06/04 02:08:01;;;;;;;10.32;3.38;;;;;;;-140.66;100.00;55571.53;5114505;28;20055;-77
2023/06/04 02:10:48;;;;;;;11.57;3.83;;;;;;;-140.66;100.00;55571.53;5113613;28;20117;-76
2023/06/04 02:13:34;;;;;;;14.80;4.20;;;;;;;-140.66;100.00;55571.53;5114013;28;20027;-76
2023/06/04 02:16:20;;;;;;;15.02;4.15;;;;;;;-140.66;100.00;55571.53;5114062;28;20019;-76
2023/06/04 02:19:05;;;;;;;11.70;3.38;;;;;;;-140.66;100.00;55571.53;5114640;28;20355;-77
2023/06/04 02:21:54;;;;;;;10.20;3.15;;;;;;;-140.66;100.00;55571.53;5113681;28;20448;-76
2023/06/04 02:24:42;;;;;;;5.60;2.72;;;;;;;-140.66;100.00;55571.53;5114081;28;20027;-77
2023/06/04 02:27:27;;;;;;;7.25;3.17;;;;;;;-140.66;100.00;55571.53;5113350;28;20360;-76
2023/06/04 02:30:15;;;;;;;6.00;3.08;;;;;;;-140.66;100.00;55571.53;5100581;28;20030;-76
2023/06/04 02:33:01;;;;;;;15.10;3.78;;;;;;;-140.66;100.00;55571.53;5104017;28;20530;-76
2023/06/04 02:35:47;;;;;;;7.10;3.15;;;;;;;-140.66;100.00;55571.53;5118687;28;20031;-77
2023/06/04 02:38:33;;;;;;;10.70;3.80;;;;;;;-140.66;100.00;55571.53;5118335;28;20471;-76
2023/06/04 02:41:19;;;;;;;17.27;4.20;;;;;;;-140.66;100.00;55571.53;5118521;28;20091;-76
2023/06/04 02:44:06;;;;;;;9.77;3.70;;;;;;;-140.66;100.00;55571.53;5106982;28;20094;-76
2023/06/04 02:46:52;;;;;;;10.82;3.42;;;;;;;-140.66;100.00;55571.53;5107955;28;20027;-76
2023/06/04 02:49:37;;;;;;;9.20;3.55;;;;;;;-140.66;100.00;55571.53;5126098;28;20119;-78
2023/06/04 02:52:25;;;;;;;9.10;3.25;;;;;;;-140.66;100.00;55571.53;5120798;28;20368;-78
2023/06/04 02:55:12;;;;;;;15.70;3.10;;;;;;;-140.66;100.00;55571.53;5118762;28;20104;-77
2023/06/04 02:57:58;;;;;;;6.13;2.63;;;;;;;-140.66;100.00;55571.53;5102759;28;20027;-77
2023/06/04 03:00:44;;;;;;;6.22;2.65;;;;;;;-140.66;100.00;55571.53;5116934;28;20028;-77
2023/06/04 03:03:31;;;;;;;4.47;2.30;;;;;;;-140.66;100.00;55571.53;5103919;28;20027;-76
2023/06/04 03:06:20;;;;;;;3.33;1.98;;;;;;;-140.66;100.00;55571.53;5116300;28;20028;-76
2023/06/04 03:09:06;;;;;;;5.18;2.40;;;;;;;-140.66;100.00;55571.53;5116735;28;20032;-76
2023/06/04 03:11:52;;;;;;;4.20;2.30;;;;;;;-140.66;100.00;55571.53;5101589;28;20052;-77
2023/06/04 03:14:38;;;;;;;9.13;3.00;;;;;;;-140.66;100.00;55571.53;5118950;28;20402;-77
2023/06/04 03:17:25;;;;;;;3.95;2.42;;;;;;;-140.66;100.00;55571.53;5118775;28;20023;-77
2023/06/04 03:20:12;;;;;;;7.28;2.50;;;;;;;-140.66;100.00;55571.53;5125085;28;20020;-78
2023/06/04 03:22:58;;;;;;;4.45;2.20;;;;;;;-140.66;100.00;55571.53;5121748;28;20051;-77
2023/06/04 03:25:43;;;;;;;6.93;2.70;;;;;;;-140.66;100.00;55571.53;5116985;28;20055;-77
2023/06/04 03:28:30;;;;;;;6.07;2.63;;;;;;;-140.66;100.00;55571.53;5116807;28;20027;-78
2023/06/04 03:31:16;;;;;;;7.10;2.80;;;;;;;-140.66;100.00;55571.53;5120862;28;20019;-78
2023/06/04 03:34:02;;;;;;;8.30;2.47;;;;;;;-140.66;100.00;55571.53;5116961;28;20089;-76
2023/06/04 03:36:47;;;;;;;6.18;2.60;;;;;;;-140.66;100.00;55571.53;5115635;28;20368;-76
2023/06/04 03:39:33;;;;;;;6.97;2.80;;;;;;;-140.66;100.00;55571.53;5117004;28;20020;-77
2023/06/04 03:42:19;;;;;;;7.45;2.92;;;;;;;-140.66;100.00;55571.53;5116883;28;20023;-77
2023/06/04 03:45:05;;;;;;;4.20;2.50;;;;;;;-140.66;100.00;55571.53;5117376;28;20075;-76
2023/06/04 03:47:51;;;;;;;5.90;2.88;;;;;;;-140.66;100.00;55571.53;5112658;28;20019;-77
2023/06/04 03:50:37;;;;;;;6.35;2.40;;;;;;;-140.66;100.00;55571.53;5116399;28;20507;-77
2023/06/04 03:53:23;;;;;;;5.07;2.53;;;;;;;-140.66;100.00;55571.53;5102226;28;20055;-77
2023/06/04 03:56:09;;;;;;;6.13;2.55;;;;;;;-140.66;100.00;55571.53;5103278;28;20066;-78
2023/06/04 03:58:55;;;;;;;5.78;2.42;;;;;;;-140.66;100.00;55571.53;5119330;28;20070;-77
2023/06/04 04:01:42;;;;;;;5.22;2.58;;;;;;;-140.66;100.00;55571.53;5101867;28;20028;-77
2023/06/04 04:04:27;;;;;;;3.75;2.35;;;;;;;-140.66;100.00;55571.53;5118814;28;20035;-77
2023/06/04 04:07:14;;;;;;;5.03;2.65;;;;;;;-140.66;100.00;55571.53;5115741;28;20015;-76
2023/06/04 04:09:59;;;;;;;4.55;2.22;;;;;;;-140.66;100.00;55571.53;5116477;28;20023;-77
2023/06/04 04:12:45;;;;;;;4.82;2.50;;;;;;;-140.66;100.00;55571.53;5117106;28;20112;-77
2023/06/04 04:15:31;;;;;;;10.05;2.80;;;;;;;-140.66;100.00;55571.53;5102595;28;20110;-77
2023/06/04 04:18:16;;;;;;;5.03;2.60;;;;;;;-140.66;100.00;55571.53;5104515;28;20027;-77
2023/06/04 04:21:04;;;;;;;6.93;3.22;;;;;;;-140.66;100.00;55571.53;5117106;28;20042;-77
2023/06/04 04:23:51;;;;;;;9.98;3.85;;;;;;;-140.66;100.00;55571.53;5115352;28;20027;-77
2023/06/04 04:26:37;;;;;;;16.13;4.03;;;;;;;-140.66;100.00;55571.53;5100835;28;20443;-76
2023/06/04 04:29:24;;;;;;;7.32;3.75;;;;;;;-140.66;100.00;55571.53;5103592;28;20507;-77
2023/06/04 04:32:10;;;;;;;10.90;3.42;;;;;;;-140.66;100.00;55571.53;5101343;28;20318;-77
2023/06/04 04:34:57;;;;;;;11.77;4.43;;;;;;;-140.66;100.00;55571.53;5101570;28;20023;-78
2023/06/04 04:37:44;;;;;;;13.30;3.75;;;;;;;-140.66;100.00;55571.53;5100673;28;20019;-75
2023/06/04 04:40:30;;;;;;;9.93;3.45;;;;;;;-140.66;100.00;55571.53;5101315;28;20035;-77
2023/06/04 04:43:16;;;;;;;7.43;3.33;;;;;;;-140.66;100.00;55571.53;5102105;28;20027;-77
2023/06/04 04:46:02;;;;;;;8.95;3.40;;;;;;;-140.66;100.00;55571.53;5101602;28;20107;-78
2023/06/04 04:48:48;;;;;;;7.78;2.83;;;;;;;-140.66;100.00;55571.53;5115018;28;20030;-77
2023/06/04 04:51:34;;;;;;;9.45;3.45;;;;;;;-140.66;100.00;55571.53;5116330;28;20030;-78
2023/06/04 04:54:20;;;;;;;10.25;2.67;;;;;;;-140.66;100.00;55571.53;5101844;28;20059;-78
2023/06/04 04:57:07;;;;;;;7.15;2.70;;;;;;;-140.66;100.00;55571.53;5103543;28;20035;-77
2023/06/04 04:59:52;;;;;;;9.38;3.30;;;;;;;-140.66;100.00;55571.53;5115118;28;20024;-77
2023/06/04 05:02:38;;;;;;;8.27;2.70;;;;;;;-140.66;100.00;55571.53;5100929;28;20110;-77
2023/06/04 05:05:24;;;;;;;6.68;2.55;;;;;;;-140.66;100.00;55571.53;5099973;28;20119;-78
2023/06/04 05:08:10;;;;;;;5.85;2.40;;;;;;;-140.66;100.00;55571.53;5100430;28;20110;-77
2023/06/04 05:10:56;;;;;;;4.60;2.60;;;;;;;-140.66;100.00;55571.53;5099225;28;20051;-77
2023/06/04 05:13:42;;;;;;;5.50;2.55;;;;;;;-140.66;100.00;55571.53;5116320;27;20024;-78
2023/06/04 05:16:27;;;;;;;3.65;2.28;;;;;;;-140.66;100.00;55571.53;5100392;28;20073;-78
2023/06/04 05:19:13;;;;;;;8.23;2.70;;;;;;;-140.66;100.00;55571.53;5100768;28;20171;-77
2023/06/04 05:22:00;;;;;;;6.07;2.38;;;;;;;-140.66;100.00;55571.53;5115568;28;20088;-77
2023/06/04 05:24:46;;;;;;;3.90;2.35;;;;;;;-140.66;100.00;55571.53;5116107;28;20367;-77
2023/06/04 05:27:32;;;;;;;4.82;2.15;;;;;;;-140.66;100.00;55571.53;5101906;28;20035;-78
2023/06/04 05:30:18;;;;;;;7.47;2.40;;;;;;;-140.66;100.00;55571.53;5101053;28;20027;-77
2023/06/04 05:33:04;;;;;;;5.13;2.05;;;;;;;-140.66;100.00;55571.53;5102586;28;20467;-78
2023/06/04 05:35:51;;;;;;;5.45;2.63;;;;;;;-140.66;100.00;55571.53;5101881;28;20364;-78
2023/06/04 05:38:37;;;;;;;4.95;2.10;;;;;;;-140.66;100.00;55571.53;5103211;28;20023;-77
2023/06/04 05:41:24;;;;;;;4.97;2.40;;;;;;;-140.66;100.00;55571.53;5102956;28;20032;-78
2023/06/04 05:44:09;;;;;;;10.55;2.40;;;;;;;-140.66;100.00;55571.53;5118493;28;20028;-78
2023/06/04 05:46:55;;;;;;;3.35;2.08;;;;;;;-140.66;100.00;55571.53;5116788;28;20027;-78
2023/06/04 05:49:41;;;;;;;6.63;2.60;;;;;;;-140.66;100.00;55571.53;5097856;28;20062;-78
2023/06/04 05:52:27;;;;;;;3.70;2.22;;;;;;;-140.66;100.00;55571.53;5083682;28;20028;-78
2023/06/04 05:55:14;;;;;;;4.75;2.33;;;;;;;-140.66;100.00;55571.53;5081658;28;20024;-77
2023/06/04 05:57:59;;;;;;;3.15;1.90;;;;;;;-140.66;100.00;55571.53;5081073;28;20506;-77
2023/06/04 06:00:46;;;;;;;4.95;2.42;;;;;;;-140.66;100.00;55571.53;5108374;28;20453;-78
2023/06/04 06:03:31;;;;;;;4.95;2.38;;;;;;;-140.66;100.00;55571.53;5116819;28;20057;-78
2023/06/04 06:06:18;;;;;;;5.55;2.20;;;;;;;-140.66;100.00;55571.53;5101307;28;20066;-78
2023/06/04 06:09:04;;;;;;;3.28;2.42;;;;;;;-140.66;100.00;55571.53;5120703;28;20055;-78
2023/06/04 06:11:50;;;;;;;6.75;2.30;;;;;;;-140.66;100.00;55571.53;5117205;27;20126;-78
2023/06/04 06:14:36;;;;;;;11.15;2.33;;;;;;;-140.66;100.00;55571.53;5138518;27;20541;-77
2023/06/04 06:17:23;;;;;;;4.90;2.20;;;;;;;-140.66;100.00;55571.53;5138301;27;20106;-77
2023/06/04 06:20:10;;;;;;;6.82;2.35;;;;;;;-140.66;100.00;55571.53;5138165;27;20031;-76
2023/06/04 06:22:56;;;;;;;6.95;2.70;;;;;;;-140.66;100.00;55571.53;5139723;27;20110;-78
2023/06/04 06:25:45;;;;;;;7.68;2.85;;;;;;;-140.66;100.00;55571.53;5138450;27;20050;-77
2023/06/04 06:28:31;;;;;;;8.25;2.53;;;;;;;-140.66;100.00;55571.53;5138629;27;20092;-77
2023/06/04 06:31:17;;;;;;;3.95;2.60;;;;;;;-140.66;100.00;55571.53;5138162;27;20038;-77
2023/06/04 06:34:02;;;;;;;7.60;2.92;;;;;;;-140.66;100.00;55571.53;5122488;27;20031;-78
2023/06/04 06:36:49;;;;;;;8.30;2.95;;;;;;;-140.66;100.00;55571.53;5137446;27;20099;-77
2023/06/04 06:39:35;;;;;;;5.68;2.28;;;;;;;-140.66;100.00;55571.53;5137604;27;20027;-78
2023/06/04 06:42:21;;;;;;;10.45;2.15;;;;;;;-140.66;100.00;55571.53;5124085;27;20027;-77
2023/06/04 06:45:07;;;;;;;7.35;2.42;;;;;;;-140.66;100.00;55571.53;5137806;27;20045;-78
2023/06/04 06:47:53;;;;;;;3.90;2.60;;;;;;;-140.66;100.00;55571.53;5138361;27;20463;-78
2023/06/04 06:50:38;;;;;;;4.45;2.30;;;;;;;-140.66;100.00;55571.53;5123828;27;20023;-78
2023/06/04 06:53:24;;;;;;;7.88;2.35;;;;;;;-140.66;100.00;55571.53;5139559;27;20027;-77
2023/06/04 06:56:10;;;;;;;4.78;2.40;;;;;;;-140.66;100.00;55571.53;5123938;27;20073;-79
2023/06/04 06:58:56;;;;;;;4.00;2.50;;;;;;;-140.66;100.00;55571.53;5124931;27;20027;-77
2023/06/04 07:01:42;;;;;;;5.07;2.97;;;;;;;-140.66;100.00;55571.53;5124464;27;20124;-78
2023/06/04 07:04:28;;;;;;;5.53;2.60;;;;;;;-140.66;100.00;55571.53;5139769;27;20038;-78
2023/06/04 07:07:13;;;;;;;11.30;2.53;;;;;;;-140.66;100.00;55571.53;5124770;27;20141;-77
2023/06/04 07:09:59;;;;;;;5.40;2.10;;;;;;;-140.66;100.00;55571.53;5138182;27;20113;-77
2023/06/04 07:12:45;;;;;;;8.23;2.10;;;;;;;-140.66;100.00;55571.53;5123170;27;20043;-78
2023/06/04 07:15:31;;;;;;;7.47;2.33;;;;;;;-140.66;100.00;55571.53;5124343;27;20020;-77
2023/06/04 07:18:17;;;;;;;7.07;2.40;;;;;;;-140.66;100.00;55571.53;5138674;27;20031;-77
2023/06/04 07:21:03;;;;;;;6.38;2.28;;;;;;;-140.66;100.00;55571.53;5123160;27;20068;-78
2023/06/04 07:23:50;;;;;;;3.25;2.20;;;;;;;-140.66;100.00;55571.53;5138939;27;20113;-77
2023/06/04 07:26:36;;;;;;;3.95;2.25;;;;;;;-140.66;100.00;55571.53;5123040;27;20079;-77
2023/06/04 07:29:22;;;;;;;5.47;2.20;;;;;;;-140.66;100.00;55571.53;5123514;27;20053;-77
2023/06/04 07:32:08;;;;;;;7.05;2.70;;;;;;;-140.66;100.00;55571.53;5122002;27;20073;-76
2023/06/04 07:34:54;;;;;;;9.13;2.22;;;;;;;-140.66;100.00;55571.53;5123754;27;20084;-77
2023/06/04 07:37:40;;;;;;;4.78;2.33;;;;;;;-140.66;100.00;55571.53;5140090;27;20028;-77
2023/06/04 07:40:25;;;;;;;5.70;2.25;;;;;;;-140.66;100.00;55571.53;5125814;27;20482;-77
2023/06/04 07:43:11;;;;;;;7.63;2.20;;;;;;;-140.66;100.00;55571.53;5135872;27;20027;-77
2023/06/04 07:45:57;;;;;;;6.53;2.03;;;;;;;-140.66;100.00;55571.53;5150014;27;20030;-77
2023/06/04 07:48:43;;;;;;;2.72;2.22;;;;;;;-140.66;100.00;55571.53;5129746;27;20027;-76
2023/06/04 07:51:29;;;;;;;7.53;2.55;;;;;;;-140.66;100.00;55571.53;5110284;28;20038;-78
2023/06/04 07:54:14;;;;;;;4.47;2.22;;;;;;;-140.66;100.00;55571.53;5123322;28;20039;-78
2023/06/04 07:57:00;;;;;;;4.55;1.90;;;;;;;-140.66;100.00;55571.53;5118754;28;20031;-78
2023/06/04 07:59:46;;;;;;;15.07;2.35;;;;;;;-140.66;100.00;55571.53;5120407;28;20019;-77
2023/06/04 08:02:32;;;;;;;4.07;1.90;;;;;;;-140.66;100.00;55571.53;5106516;28;20107;-78
2023/06/04 08:05:18;;;;;;;6.93;2.08;;;;;;;-140.66;100.00;55571.53;5104242;28;20091;-78
2023/06/04 08:08:04;;;;;;;9.55;2.30;;;;;;;-140.66;100.00;55571.53;5105667;28;20027;-78
2023/06/04 08:10:49;;;;;;;6.15;2.10;;;;;;;-140.66;100.00;55571.53;5112736;28;20060;-77
2023/06/04 08:13:35;;;;;;;8.25;2.28;;;;;;;-140.66;100.00;55571.53;5097810;28;20102;-75
2023/06/04 08:16:21;;;;;;;6.53;1.85;;;;;;;-140.66;100.00;55571.53;5081873;28;20123;-77
2023/06/04 08:19:07;;;;;;;4.50;1.80;;;;;;;-140.66;100.00;55571.53;5098290;28;20085;-77
2023/06/04 08:21:53;;;;;;;4.72;2.00;;;;;;;-140.66;100.00;55571.53;5101330;28;20102;-76
2023/06/04 08:24:39;;;;;;;4.75;1.67;;;;;;;-140.66;100.00;55571.53;5097757;28;20055;-77
2023/06/04 08:27:25;;;;;;;6.63;1.83;;;;;;;-140.66;100.00;55571.53;5086648;28;20359;-77
2023/06/04 08:30:11;;;;;;;7.30;1.90;;;;;;;-140.66;100.00;55571.53;5108767;28;20020;-76
2023/06/04 08:32:57;;;;;;;6.47;1.90;;;;;;;-140.66;100.00;55571.53;5104197;28;20097;-77
2023/06/04 08:35:42;;;;;;;3.85;1.90;;;;;;;-140.66;100.00;55571.53;5095404;28;20051;-77
2023/06/04 08:38:28;;;;;;;2.08;1.42;;;;;;;-140.66;100.00;55571.53;5095090;28;20028;-76
2023/06/04 08:41:26;;;;;;;8.65;2.10;;;;;;;-140.66;100.00;55571.53;5095216;28;20042;-77
2023/06/04 08:44:12;;;;;;;7.60;1.90;;;;;;;-140.66;100.00;55571.53;5092843;28;20059;-76
2023/06/04 08:47:03;;;;;;;5.65;1.80;;;;;;;-140.66;100.00;55571.53;5094698;28;20024;-76
2023/06/04 08:49:53;;;;;;;3.42;1.83;;;;;;;-140.66;100.00;55571.53;5081320;28;20055;-77
2023/06/04 08:52:40;;;;;;;3.50;1.92;;;;;;;-140.66;100.00;55571.53;5094093;28;20472;-76
2023/06/04 08:55:27;;;;;;;3.65;1.80;;;;;;;-140.66;100.00;55571.53;5079072;28;20036;-77
2023/06/04 08:58:14;;;;;;;3.17;1.70;;;;;;;-140.66;100.00;55571.53;5079435;28;20042;-76
2023/06/04 09:01:01;;;;;;;7.35;2.10;;;;;;;-140.66;100.00;55571.53;5080085;28;20020;-76
2023/06/04 09:03:48;;;;;;;3.22;1.70;;;;;;;-140.66;100.00;55571.53;5079335;28;20046;-76
2023/06/04 09:06:35;;;;;;;2.72;1.70;;;;;;;-140.66;100.00;55571.53;5079493;28;20023;-76
2023/06/04 09:09:23;;;;;;;3.58;2.00;;;;;;;-140.66;100.00;55571.53;5094584;28;20067;-76
2023/06/04 09:12:11;;;;;;;6.50;2.00;;;;;;;-140.66;100.00;55571.53;5110382;28;20044;-77
2023/06/04 09:14:57;;;;;;;7.95;2.17;;;;;;;-140.66;100.00;55571.53;5113950;28;20027;-77
2023/06/04 09:17:43;;;;;;;6.07;1.90;;;;;;;-140.66;100.00;55571.53;5113730;28;20031;-76
2023/06/04 09:20:32;;;;;;;4.88;1.90;;;;;;;-140.66;100.00;55571.53;5114644;28;20098;-76
2023/06/04 09:23:21;;;;;;;5.28;2.00;;;;;;;-140.66;100.00;55571.53;5094380;28;20055;-77
2023/06/04 09:26:08;;;;;;;8.20;2.15;;;;;;;-140.66;100.00;55571.53;5094658;28;20038;-76
2023/06/04 09:28:56;;;;;;;3.40;1.90;;;;;;;-140.66;100.00;55571.53;5095070;28;20452;-76
2023/06/04 09:31:58;;;;;;;4.35;1.73;;;;;;;-140.66;100.00;55571.53;5093858;28;20114;-76
2023/06/04 09:34:45;;;;;;;5.57;1.85;;;;;;;-140.66;100.00;55571.53;5094899;28;20540;-76
2023/06/04 09:37:30;;;;;;;2.58;1.77;;;;;;;-140.66;100.00;55571.53;5094346;28;20028;-77
2023/06/04 09:40:16;;;;;;;4.75;2.22;;;;;;;-140.66;100.00;55571.53;5094267;28;20128;-75
2023/06/04 09:43:02;;;;;;;2.35;1.77;;;;;;;-140.66;100.00;55571.53;5093864;28;20038;-75
2023/06/04 09:45:48;;;;;;;4.80;2.05;;;;;;;-140.66;100.00;55571.53;5094361;28;20028;-76
2023/06/04 09:48:34;;;;;;;6.18;2.13;;;;;;;-140.66;100.00;55571.53;5094406;28;20028;-77
2023/06/04 09:51:20;;;;;;;8.50;2.17;;;;;;;-140.66;100.00;55571.53;5079528;28;20043;-77
2023/06/04 09:54:06;;;;;;;6.53;2.00;;;;;;;-140.66;100.00;55571.53;5093999;28;20128;-76
2023/06/04 09:56:52;;;;;;;4.32;2.20;;;;;;;-140.66;100.00;55571.53;5094017;28;20029;-77
2023/06/04 09:59:40;;;;;;;5.75;1.90;;;;;;;-140.66;100.00;55571.53;5095098;28;20170;-77
2023/06/04 10:02:29;;;;;;;11.77;2.47;;;;;;;-140.66;100.00;55571.53;5093394;28;20092;-77
2023/06/04 10:05:15;;;;;;;3.90;1.88;;;;;;;-140.66;100.00;55571.53;5080220;28;20036;-77
2023/06/04 10:08:05;;;;;;;5.70;2.13;;;;;;;-140.66;100.00;55571.53;5080023;28;20076;-77
2023/06/04 10:10:52;;;;;;;5.60;1.88;;;;;;;-140.66;100.00;55571.53;5077642;28;20157;-78
2023/06/04 10:13:47;;;;;;;6.70;1.92;;;;;;;-140.66;100.00;55571.53;5099701;28;20078;-75
2023/06/04 10:16:37;;;;;;;4.28;2.08;;;;;;;-140.66;100.00;55571.53;5099006;28;20063;-77
2023/06/04 10:19:23;;;;;;;5.70;2.30;;;;;;;-140.66;100.00;55571.53;5094646;28;20016;-78
2023/06/04 10:22:11;;;;;;;9.70;2.38;;;;;;;-140.66;100.00;55571.53;5095135;28;20127;-76
2023/06/04 10:24:58;;;;;;;5.18;2.00;;;;;;;-140.66;100.00;55571.53;5079332;28;20360;-76
2023/06/04 10:27:46;;;;;;;5.57;1.98;;;;;;;-140.66;100.00;55571.53;5065592;28;20024;-78
2023/06/04 10:30:32;;;;;;;6.28;2.00;;;;;;;-140.66;100.00;55571.53;5091517;28;20081;-77
2023/06/04 10:33:20;;;;;;;3.17;2.00;;;;;;;-140.66;100.00;55571.53;5113080;28;20024;-76
2023/06/04 10:36:20;;;;;;;3.33;2.00;;;;;;;-140.66;100.00;55571.53;5112262;28;20028;-76
2023/06/04 10:39:07;;;;;;;4.80;2.08;;;;;;;-140.66;100.00;55571.53;5113435;28;20103;-76
2023/06/04 10:42:05;;;;;;;3.42;1.88;;;;;;;-140.66;100.00;55571.53;5098060;28;20091;-76
2023/06/04 10:44:54;;;;;;;5.85;2.20;;;;;;;-140.66;100.00;55571.53;5112400;28;20487;-76
2023/06/04 10:47:40;;;;;;;5.60;2.25;;;;;;;-140.66;100.00;55571.53;5112807;28;20360;-77
2023/06/04 10:50:26;;;;;;;5.05;2.38;;;;;;;-140.66;100.00;55571.53;5098405;28;20293;-77
2023/06/04 10:53:12;;;;;;;11.07;2.28;;;;;;;-140.66;100.00;55571.53;5116957;28;20088;-77
2023/06/04 10:55:58;;;;;;;7.13;2.03;;;;;;;-140.66;100.00;55571.53;5117008;28;20028;-77
2023/06/04 10:58:44;;;;;;;3.00;1.80;;;;;;;-140.66;100.00;55571.53;5117207;28;20031;-77
2023/06/04 11:01:31;;;;;;;7.40;2.15;;;;;;;-140.66;100.00;55571.53;5101365;28;20066;-77
2023/06/04 11:04:25;;;;;;;3.85;1.98;;;;;;;-140.66;100.00;55571.53;5116450;28;20110;-76
2023/06/04 11:07:10;;;;;;;6.35;2.00;;;;;;;-140.66;100.00;55571.53;5115947;28;20038;-75
2023/06/04 11:09:56;;;;;;;2.97;1.80;;;;;;;-140.66;100.00;55571.53;5117500;28;20035;-76
2023/06/04 11:12:46;;;;;;;5.10;1.98;;;;;;;-140.66;100.00;55571.53;5117197;28;20047;-77
2023/06/04 11:15:42;;;;;;;6.25;2.13;;;;;;;-140.66;100.00;55571.53;5118181;28;20409;-77
2023/06/04 11:18:28;;;;;;;4.45;2.33;;;;;;;-140.66;100.00;55571.53;5116729;28;20160;-77
2023/06/04 11:21:14;;;;;;;4.40;2.03;;;;;;;-140.66;100.00;55571.53;5117207;28;20023;-76
2023/06/04 11:24:01;;;;;;;2.72;2.03;;;;;;;-140.66;100.00;55571.53;5116633;28;20100;-77
2023/06/04 11:26:46;;;;;;;8.18;2.33;;;;;;;-140.66;100.00;55571.53;5117042;28;20367;-78
2023/06/04 11:29:32;;;;;;;7.53;2.17;;;;;;;-140.66;100.00;55571.53;5116962;28;20027;-79
2023/06/04 11:32:25;;;;;;;3.70;1.90;;;;;;;-140.66;100.00;55571.53;5116431;28;20106;-78
2023/06/04 11:35:11;;;;;;;7.65;1.90;;;;;;;-140.66;100.00;55571.53;5116872;28;20051;-78
2023/06/04 11:37:58;;;;;;;4.80;2.33;;;;;;;-140.66;100.00;55571.53;5116949;28;20032;-78
2023/06/04 11:40:45;;;;;;;6.00;2.53;;;;;;;-140.66;100.00;55571.53;5101159;28;20100;-76
2023/06/04 11:43:32;;;;;;;7.45;1.92;;;;;;;-140.66;100.00;55571.53;5116791;28;20361;-78
2023/06/04 11:46:18;;;;;;;5.25;2.20;;;;;;;-140.66;100.00;55571.53;5116065;28;20023;-77
2023/06/04 11:49:04;;;;;;;4.13;2.00;;;;;;;-140.66;100.00;55571.53;5116559;28;20379;-77
2023/06/04 11:51:52;;;;;;;5.90;2.20;;;;;;;-140.66;100.00;55571.53;5116435;28;20027;-78
2023/06/04 11:54:39;;;;;;;5.40;2.10;;;;;;;-140.66;100.00;55571.53;5100966;28;20345;-76
2023/06/04 11:57:25;;;;;;;6.15;2.42;;;;;;;-140.66;100.00;55571.53;5101954;28;20024;-76
2023/06/04 12:00:12;;;;;;;8.48;2.20;;;;;;;-140.66;100.00;55571.53;5100378;28;20020;-76
2023/06/04 12:02:59;;;;;;;6.40;2.15;;;;;;;-140.66;100.00;55571.53;5115705;28;20063;-78
2023/06/04 12:05:45;;;;;;;3.90;1.90;;;;;;;-140.66;100.00;55571.53;5101320;28;20030;-79
2023/06/04 12:08:31;;;;;;;8.90;2.20;;;;;;;-140.66;100.00;55571.53;5115126;28;20031;-77
2023/06/04 12:11:31;;;;;;;3.70;2.00;;;;;;;-140.66;100.00;55571.53;5114853;28;20134;-77
2023/06/04 12:14:20;;;;;;;2.38;1.85;;;;;;;-140.66;100.00;55571.53;5115265;28;20092;-77
2023/06/04 12:17:08;;;;;;;5.72;2.00;;;;;;;-140.66;100.00;55571.53;5115480;28;20024;-76
2023/06/04 12:19:54;;;;;;;5.57;2.00;;;;;;;-140.66;100.00;55571.53;5114942;28;20168;-77
2023/06/04 12:22:52;;;;;;;6.00;2.42;;;;;;;-140.66;100.00;55571.53;5100277;28;20023;-77
2023/06/04 12:25:38;;;;;;;4.88;2.00;;;;;;;-140.66;100.00;55571.53;5115677;28;20356;-77
2023/06/04 12:28:24;;;;;;;6.30;1.98;;;;;;;-140.66;100.00;55571.53;5115473;28;20035;-77
2023/06/04 12:31:17;;;;;;;4.82;1.98;;;;;;;-140.66;100.00;55571.53;5126877;28;20054;-78
2023/06/04 12:34:03;;;;;;;2.50;2.10;;;;;;;-140.66;100.00;55571.53;5131228;28;20447;-78
2023/06/04 12:36:49;;;;;;;7.03;2.10;;;;;;;-140.66;100.00;55571.53;5132922;28;20034;-79